Antoine Wiels

Antoine Wiels

Statistiques 2026

  • Courses courues : 91
  • Nb de victoires : 24
  • Nb de places : 51
  • Écart gagnant : -
  • Réussite à la gagne : 26%
  • Réussite à la place : 56%
Musique : 1a 3a 0a 3a 0a 0a 3a 5a Da Da 7a Da 3a 7a Da 1a 8a 1a
DateRangCatégorieAlloc.Dist.HippodromeChevalRed. KmSpé.
29/12/14 D Trot 22 000€ 2 975m Toulouse Ton Reve l'Eman Attelé lire

A pris le galop dans le premier tournant.

09/02/15 3 Trot 28 000€ 2 975m Toulouse Uniflosa Bella 1'16"0 Attelé
09/02/15 1 Trot 19 000€ 2 975m Toulouse Ubu d'hameline 1'17"6 Monté
17/04/15 8 Trot 20 000€ 2 950m Saint Malo Ubella de Regen 1'18"5 Monté
17/04/15 7 Trot 22 000€ 2 950m Saint Malo Andrea Bella 1'18"6 Attelé
29/04/15 7 Trot 22 000€ 2 950m Le Mans Virtuoso Bello 1'17"6 Monté
29/04/15 2 Trot 20 000€ 2 950m Le Mans Baroudeur d'Anjou 1'16"7 Monté
27/06/15 3 Trot 18 000€ 2 975m Le Mans Azur des Caillons 1'15"4 Attelé
25/07/15 7 Trot 22 000€ 2 950m Le Mans Vivaquatine 1'17"9 Attelé
25/07/15 D Trot 25 000€ 2 950m Le Mans Alec Hornline Monté
25/07/15 6 Trot 28 000€ 2 950m Le Mans Tonic des Pins 1'17"5 Attelé
25/07/15 6 Trot 21 000€ 2 950m Le Mans Vent Glacial 1'17"8 Monté
09/08/15 2 Trot 20 000€ 2 975m Saint Malo Velio du Lupin 1'17"5 Attelé
09/08/15 8 Trot 13 000€ 2 950m Saint Malo Baron d'Attaque 1'20"4 Monté
09/08/15 D Trot 12 000€ 2 950m Saint Malo Cassetta Bella Attelé
09/08/15 0 Trot 25 000€ 2 950m Saint Malo Vanessa Bella Attelé
15/08/15 D Trot 13 000€ 2 950m Saint Malo Comte des Tithais Attelé
15/08/15 1 Trot 15 000€ 2 950m Saint Malo Banquiere Magic 1'18"9 Monté
15/08/15 2 Trot 17 000€ 2 975m Saint Malo Baxo des Caillons 1'16"3 Attelé
24/10/15 0 Trot 12 000€ 2 950m Le Mans Belle d'Orlando Attelé
24/10/15 D Trot 12 000€ 2 950m Le Mans Berger de Cezes Monté
22/04/16 D Trot 20 000€ 2 950m Saint Malo Valseur du Goutier Monté
22/04/16 0 Trot 21 000€ 2 950m Saint Malo Bella Nova Attelé
22/04/16 3 Trot 21 000€ 2 975m Saint Malo Be Good 1'17"3 Attelé
04/05/16 6 Trot 22 000€ 2 975m Le Mans Bacchus Da Vinci 1'16"1 Monté
15/05/16 4 Mixte 15 000€ 2 975m Saint Malo Charmeur du Lupin 1'18"4 Monté
15/05/16 5 Mixte 17 000€ 2 975m Saint Malo Brazilio Bello 1'16"5 Attelé
16/07/16 D Trot 28 000€ 2 950m Saint Malo Brazilio Bello Attelé
16/07/16 3 Trot 24 000€ 2 950m Saint Malo Athena Gede 1'17"0 Attelé
16/07/16 1 Trot 22 000€ 2 950m Saint Malo Bon du Lupin 1'15"6 Attelé
16/07/16 D Trot 22 000€ 2 950m Saint Malo Bardane Attelé
16/07/16 0 Trot 22 000€ 2 950m Saint Malo Corbeille d'Argent Attelé
30/07/16 1 Trot 21 000€ 2 950m Le Mans Belle de Manche 1'17"0 Attelé
30/07/16 3 Trot 25 000€ 2 950m Le Mans Aulynx d'Any 1'16"7 Monté
10/08/16 D Trot 22 000€ 2 950m Saint Malo Bon du Lupin Attelé lire

Vite aux premiers rangs, a longtemps fait figure de lauréat, avant de s'incliner dans les dernières battues. A été sanctionné après enquête.

15/08/16 8 Trot 13 000€ 2 950m Saint Malo Deedjar du Vivier 1'19"0 Attelé
15/08/16 D Trot 13 000€ 2 950m Saint Malo Dance Floor Attelé
15/08/16 4 Trot 15 000€ 2 975m Saint Malo Charmeur du Lupin 1'17"5 Monté
15/08/16 3 Trot 25 000€ 2 975m Saint Malo Vahine de Felliere 1'16"5 Attelé
15/08/16 3 Trot 17 000€ 2 975m Saint Malo Cronos d'hameline 1'17"4 Attelé
15/12/25 2 Trot 30 000€ 2 975m Le Mans Ilmat des Keches 1'13"8 Attelé
08/05/26 3 Trot 15 000€ 2 950m Le Mans Mastero Bello Attelé
08/05/26 0 Trot 15 000€ 2 950m Le Mans Metalo du Rif Attelé
08/05/26 3 Trot 19 000€ 2 975m Le Mans Lawman Attelé
08/05/26 1 Trot 25 000€ 2 975m Le Mans Jadou du Lupin Attelé
02/06/19 1 Trot 15 000€ 2 950m Saint Malo Fidelio d'hameline 1'17"2 Monté lire

Un des animateurs, a hérité du succès après la faute d'un rival dans la phase finale.

02/06/19 A Trot 15 000€ 2 950m Saint Malo Fortuna Cehere Attelé lire

Jamais en course, a été arrêtée dans la phase finale.

02/06/19 1 Trot 15 000€ 2 950m Saint Malo Feel So Good 1'16"5 Attelé lire

Principal animateur, a su se montrer le plus fort dans la phase finale.

02/06/19 D Trot 17 000€ 2 950m Saint Malo Elvira des Keches Attelé lire

Longtemps en retrait, s'est désunie dans le tournant final alors qu'elle progressait.

02/06/19 2 Trot 17 000€ 2 950m Saint Malo Echo du Lupin 1'17"0 Attelé lire

Tout de suite à la pointe du combat, a très bien tenu sa partie jusqu'au bout.